createdAt,value
2023-01-21T00:01:01.561Z,99917.19
2023-01-21T00:03:29.069Z,99915.34
2023-01-21T00:05:58.256Z,99915.50
2023-01-21T00:08:26.553Z,99925.09
2023-01-21T00:10:56.839Z,99926.72
2023-01-21T00:13:24.033Z,99928.47
2023-01-21T00:15:54.222Z,99931.00
2023-01-21T00:18:21.765Z,99937.75
2023-01-21T00:20:48.897Z,99934.34
2023-01-21T00:23:16.009Z,99932.44
2023-01-21T00:25:43.445Z,99931.38
2023-01-21T00:28:10.534Z,99945.00
2023-01-21T00:30:38.054Z,99941.41
2023-01-21T00:33:05.716Z,99947.66
2023-01-21T00:35:32.945Z,99938.00
2023-01-21T00:38:00.119Z,99941.53
2023-01-21T00:40:27.527Z,99932.75
2023-01-21T00:42:54.729Z,99931.50
2023-01-21T00:45:21.901Z,99930.38
2023-01-21T00:47:49.361Z,99934.44
2023-01-21T00:50:17.348Z,99931.78
2023-01-21T00:52:44.730Z,99918.63
2023-01-21T00:55:12.131Z,99915.91
2023-01-21T00:57:39.590Z,99913.38
2023-01-21T01:00:11.034Z,99914.34
2023-01-21T01:02:38.814Z,99920.81
2023-01-21T01:05:08.317Z,99917.28
2023-01-21T01:07:35.558Z,99929.03
2023-01-21T01:10:03.036Z,99933.31
2023-01-21T01:12:30.112Z,99938.38
2023-01-21T01:14:58.445Z,99937.44
2023-01-21T01:17:26.938Z,99930.59
2023-01-21T01:19:54.135Z,99931.59
2023-01-21T01:22:21.544Z,99934.00
2023-01-21T01:24:48.952Z,99933.88
2023-01-21T01:27:16.065Z,99934.72
2023-01-21T01:29:43.137Z,99927.38
2023-01-21T01:32:11.241Z,99916.22
2023-01-21T01:34:39.295Z,99917.97
2023-01-21T01:37:07.303Z,99914.66
2023-01-21T01:39:35.768Z,99923.09
2023-01-21T01:42:03.610Z,99924.81
2023-01-21T01:44:49.142Z,99921.50
2023-01-21T01:47:16.701Z,99924.06
2023-01-21T01:49:44.081Z,99925.69
2023-01-21T01:52:11.954Z,99927.53
2023-01-21T01:54:43.479Z,99918.94
2023-01-21T01:57:12.674Z,99922.81
2023-01-21T01:59:40.967Z,99922.53
2023-01-21T02:02:10.267Z,99922.53
2023-01-21T02:05:10.922Z,99926.78
2023-01-21T02:07:42.875Z,99918.25
2023-01-21T02:10:12.052Z,99907.94
2023-01-21T02:12:41.910Z,99911.91
2023-01-21T02:15:09.563Z,99915.28
2023-01-21T02:17:52.660Z,99915.19
2023-01-21T02:20:44.542Z,99906.28
2023-01-21T02:23:27.791Z,99905.38
2023-01-21T02:25:59.376Z,99910.94
2023-01-21T02:28:54.658Z,99922.47
2023-01-21T02:31:33.381Z,99926.75
2023-01-21T02:34:06.178Z,99928.22
2023-01-21T02:36:43.436Z,99929.31
2023-01-21T02:39:32.021Z,99932.37
2023-01-21T02:42:30.344Z,99927.41
2023-01-21T02:45:26.165Z,99915.78
2023-01-21T02:48:05.851Z,99920.25
2023-01-21T02:50:45.039Z,99916.38
2023-01-21T02:53:25.712Z,99906.88
2023-01-21T02:55:53.628Z,99905.62
2023-01-21T02:58:26.059Z,99903.06
2023-01-21T03:01:05.554Z,99902.44
2023-01-21T03:04:10.898Z,99901.09
2023-01-21T03:06:56.862Z,99904.44
2023-01-21T03:09:42.555Z,99914.34
2023-01-21T03:12:28.062Z,99912.84
2023-01-21T03:15:43.810Z,99914.56
2023-01-21T03:18:38.734Z,99918.22
2023-01-21T03:21:08.865Z,99923.50
2023-01-21T03:23:42.472Z,99932.03
2023-01-21T03:26:11.488Z,99937.06
2023-01-21T03:28:44.157Z,99933.75
2023-01-21T03:31:43.757Z,99942.31
2023-01-21T03:34:13.087Z,99938.19
2023-01-21T03:37:21.848Z,99958.28
2023-01-21T03:39:57.603Z,99951.22
2023-01-21T03:42:25.173Z,99959.44
2023-01-21T03:44:52.403Z,99966.06
2023-01-21T03:47:38.070Z,99958.19
2023-01-21T03:50:07.416Z,99960.56
2023-01-21T03:52:34.660Z,99962.13
2023-01-21T03:55:01.749Z,99962.91
2023-01-21T03:57:29.187Z,99967.12
2023-01-21T03:59:56.551Z,99969.81
2023-01-21T04:02:23.748Z,99983.22
2023-01-21T04:04:53.136Z,99978.78
2023-01-21T04:07:20.298Z,99987.38
2023-01-21T04:09:47.436Z,99986.50
2023-01-21T04:12:14.817Z,99986.56
2023-01-21T04:14:41.969Z,99979.59
2023-01-21T04:17:09.405Z,99987.41
2023-01-21T04:19:36.805Z,99995.03
2023-01-21T04:22:03.920Z,99991.44
2023-01-21T04:24:33.098Z,99980.34
2023-01-21T04:27:01.843Z,99984.56
2023-01-21T04:29:28.940Z,99990.66
2023-01-21T04:31:56.048Z,99988.84
2023-01-21T04:34:23.462Z,99998.94
2023-01-21T04:36:53.325Z,100006.63
2023-01-21T04:39:20.417Z,100010.81
2023-01-21T04:41:48.371Z,100019.25
2023-01-21T04:44:15.475Z,100016.69
2023-01-21T04:46:42.542Z,100014.03
2023-01-21T04:49:10.013Z,100008.06
2023-01-21T04:51:37.113Z,100006.44
2023-01-21T04:54:04.340Z,100009.84
2023-01-21T04:56:31.789Z,100015.03
2023-01-21T04:58:58.849Z,100018.41
2023-01-21T05:01:25.977Z,100029.53
2023-01-21T05:03:53.354Z,100032.78
2023-01-21T05:06:20.435Z,100034.38
2023-01-21T05:08:47.641Z,100029.88
2023-01-21T05:11:17.758Z,100034.16
2023-01-21T05:13:44.899Z,100028.19
2023-01-21T05:16:11.992Z,100035.81
2023-01-21T05:18:40.721Z,100041.84
2023-01-21T05:21:08.320Z,100032.31
2023-01-21T05:23:35.419Z,100040.13
2023-01-21T05:26:03.228Z,100045.91
2023-01-21T05:28:30.367Z,100045.75
2023-01-21T05:31:02.194Z,100052.44
2023-01-21T05:33:33.967Z,100056.66
2023-01-21T05:36:01.753Z,100053.38
2023-01-21T05:38:29.064Z,100058.41
2023-01-21T05:41:02.132Z,100061.81
2023-01-21T05:43:29.809Z,100068.50
2023-01-21T05:45:57.321Z,100064.13
2023-01-21T05:48:24.813Z,100058.91
2023-01-21T05:50:52.053Z,100064.88
2023-01-21T05:53:19.700Z,100066.75
2023-01-21T05:55:47.068Z,100079.34
2023-01-21T05:58:14.281Z,100080.69
2023-01-21T06:00:42.079Z,100082.31
2023-01-21T06:03:09.737Z,100086.12
2023-01-21T06:05:36.880Z,100091.78
2023-01-21T06:08:04.169Z,100088.37
2023-01-21T06:10:31.604Z,100094.19
2023-01-21T06:12:58.675Z,100092.84
2023-01-21T06:15:26.055Z,100092.19
2023-01-21T06:17:53.879Z,100087.28
2023-01-21T06:20:21.144Z,100094.72
2023-01-21T06:22:49.063Z,100102.09
2023-01-21T06:25:16.504Z,100108.72
2023-01-21T06:27:43.581Z,100117.28
2023-01-21T06:30:11.226Z,100126.50
2023-01-21T06:32:38.620Z,100126.56
2023-01-21T06:35:06.151Z,100116.41
2023-01-21T06:37:33.380Z,100120.69
2023-01-21T06:40:00.806Z,100120.56
2023-01-21T06:42:27.911Z,100126.50
2023-01-21T06:44:54.985Z,100120.66
2023-01-21T06:47:22.357Z,100125.34
2023-01-21T06:49:49.476Z,100132.34
2023-01-21T06:52:17.010Z,100125.56
2023-01-21T06:54:44.566Z,100119.94
2023-01-21T06:57:12.141Z,100130.84
2023-01-21T06:59:39.256Z,100137.50
2023-01-21T07:02:07.104Z,100133.66
2023-01-21T07:04:34.211Z,100134.47
2023-01-21T07:07:01.312Z,100133.59
2023-01-21T07:09:28.684Z,100144.69
2023-01-21T07:11:55.767Z,100148.38
2023-01-21T07:14:22.858Z,100165.16
2023-01-21T07:16:50.311Z,100166.50
2023-01-21T07:19:17.373Z,100173.59
2023-01-21T07:21:44.574Z,100183.59
2023-01-21T07:24:12.007Z,100188.47
2023-01-21T07:26:39.142Z,100193.16
2023-01-21T07:29:09.431Z,100196.56
2023-01-21T07:31:37.171Z,100196.44
2023-01-21T07:34:04.395Z,100203.19
2023-01-21T07:36:31.756Z,100213.13
2023-01-21T07:38:59.422Z,100213.13
2023-01-21T07:41:26.528Z,100206.53
2023-01-21T07:43:53.637Z,100210.78
2023-01-21T07:46:22.005Z,100213.34
2023-01-21T07:48:51.129Z,100216.97
2023-01-21T07:51:19.528Z,100225.41
2023-01-21T07:53:46.981Z,100217.81
2023-01-21T07:56:14.930Z,100221.09
2023-01-21T07:58:42.050Z,100227.06
2023-01-21T08:01:10.088Z,100231.09
2023-01-21T08:03:37.894Z,100226.91
2023-01-21T08:06:06.179Z,100229.69
2023-01-21T08:08:33.656Z,100235.97
2023-01-21T08:11:01.132Z,100237.44
2023-01-21T08:13:28.417Z,100235.09
2023-01-21T08:15:56.653Z,100233.16
2023-01-21T08:18:24.751Z,100233.25
2023-01-21T08:20:56.299Z,100237.66
2023-01-21T08:23:24.397Z,100232.53
2023-01-21T08:25:51.586Z,100233.09
2023-01-21T08:28:18.858Z,100236.22
2023-01-21T08:30:46.287Z,100237.19
2023-01-21T08:33:13.499Z,100245.53
2023-01-21T08:35:40.673Z,100242.91
2023-01-21T08:38:08.181Z,100250.72
2023-01-21T08:40:35.311Z,100264.34
2023-01-21T08:43:03.862Z,100253.56
2023-01-21T08:45:31.278Z,100260.87
2023-01-21T08:47:58.456Z,100254.81
2023-01-21T08:50:25.559Z,100256.44
2023-01-21T08:52:53.661Z,100260.72
2023-01-21T08:55:21.529Z,100260.59
2023-01-21T08:57:52.063Z,100260.94
2023-01-21T09:00:20.828Z,100261.91
2023-01-21T09:02:50.000Z,100264.31
2023-01-21T09:05:18.978Z,100269.75
2023-01-21T09:07:46.688Z,100273.09
2023-01-21T09:10:34.384Z,100271.31
2023-01-21T09:13:06.190Z,100266.44
2023-01-21T09:15:40.810Z,100259.16
2023-01-21T09:18:08.636Z,100257.81
2023-01-21T09:20:36.293Z,100266.38
2023-01-21T09:23:24.265Z,100275.06
2023-01-21T09:26:01.211Z,100265.56
2023-01-21T09:28:28.550Z,100269.16
2023-01-21T09:31:00.413Z,100272.78
2023-01-21T09:33:29.195Z,100272.50
2023-01-21T09:35:58.225Z,100266.28
2023-01-21T09:38:26.376Z,100274.56
2023-01-21T09:40:53.866Z,100268.59
2023-01-21T09:43:27.975Z,100265.84
2023-01-21T09:45:58.554Z,100266.12
2023-01-21T09:48:33.517Z,100264.63
2023-01-21T09:51:04.971Z,100260.41
2023-01-21T09:53:53.158Z,100253.47
2023-01-21T09:56:28.538Z,100262.91
2023-01-21T09:59:13.085Z,100268.81
2023-01-21T10:01:41.094Z,100273.22
2023-01-21T10:04:27.110Z,100264.22
2023-01-21T10:07:07.652Z,100271.16
2023-01-21T10:09:44.077Z,100268.44
2023-01-21T10:12:14.122Z,100276.06
2023-01-21T10:14:41.499Z,100269.25
2023-01-21T10:17:31.489Z,100267.63
2023-01-21T10:20:22.200Z,100273.44
2023-01-21T10:23:00.113Z,100276.62
2023-01-21T10:25:34.658Z,100273.94
2023-01-21T10:28:06.626Z,100272.28
2023-01-21T10:30:37.962Z,100285.91
2023-01-21T10:33:08.957Z,100278.97
2023-01-21T10:35:48.271Z,100287.69
2023-01-21T10:38:27.485Z,100286.00
2023-01-21T10:41:02.214Z,100283.94
2023-01-21T10:43:38.433Z,100288.84
2023-01-21T10:46:26.106Z,100290.97
2023-01-21T10:49:08.725Z,100290.25
2023-01-21T10:51:45.482Z,100293.59
2023-01-21T10:54:16.118Z,100295.03
2023-01-21T10:56:43.421Z,100288.56
2023-01-21T10:59:19.406Z,100286.50
2023-01-21T11:02:03.638Z,100286.66
2023-01-21T11:04:30.769Z,100280.09
2023-01-21T11:07:03.545Z,100284.50
2023-01-21T11:09:49.176Z,100273.84
2023-01-21T11:12:20.002Z,100275.63
2023-01-21T11:15:10.986Z,100276.28
2023-01-21T11:17:41.256Z,100273.59
2023-01-21T11:20:34.036Z,100268.13
2023-01-21T11:23:06.034Z,100272.53
2023-01-21T11:25:36.179Z,100268.13
2023-01-21T11:28:04.981Z,100275.84
2023-01-21T11:30:50.934Z,100279.25
2023-01-21T11:33:25.742Z,100272.59
2023-01-21T11:35:55.822Z,100271.94
2023-01-21T11:38:26.162Z,100276.97
2023-01-21T11:41:12.065Z,100268.41
2023-01-21T11:43:54.583Z,100265.75
2023-01-21T11:46:34.798Z,100267.28
2023-01-21T11:49:08.466Z,100272.25
2023-01-21T11:51:37.293Z,100267.87
2023-01-21T11:54:18.379Z,100266.16
2023-01-21T11:57:37.717Z,100265.22
2023-01-21T12:00:08.833Z,100268.19
2023-01-21T12:02:48.960Z,100272.88
2023-01-21T12:05:27.146Z,100277.25
2023-01-21T12:07:55.009Z,100274.84
2023-01-21T12:10:43.475Z,100275.56
2023-01-21T12:13:22.111Z,100276.19
2023-01-21T12:15:59.268Z,100283.88
2023-01-21T12:19:03.460Z,100278.00
2023-01-21T12:21:52.852Z,100278.69
2023-01-21T12:24:42.439Z,100278.00
2023-01-21T12:27:19.158Z,100285.53
2023-01-21T12:30:06.530Z,100284.84
2023-01-21T12:32:40.251Z,100282.53
2023-01-21T12:35:16.134Z,100288.09
2023-01-21T12:37:56.829Z,100293.22
2023-01-21T12:41:02.096Z,100304.78
2023-01-21T12:43:42.498Z,100294.81
2023-01-21T12:46:38.199Z,100294.41
2023-01-21T12:49:49.423Z,100306.97
2023-01-21T12:52:42.227Z,100309.22
2023-01-21T12:55:22.364Z,100306.06
2023-01-21T12:57:49.508Z,100303.66
2023-01-21T13:00:20.461Z,100312.13
2023-01-21T13:03:06.034Z,100307.56
2023-01-21T13:05:47.832Z,100306.06
2023-01-21T13:08:14.947Z,100322.16
2023-01-21T13:10:45.641Z,100316.84
2023-01-21T13:13:22.432Z,100316.38
2023-01-21T13:15:53.067Z,100308.41
2023-01-21T13:18:25.864Z,100319.22
2023-01-21T13:20:55.953Z,100316.66
2023-01-21T13:23:43.430Z,100316.84
2023-01-21T13:26:30.265Z,100321.13
2023-01-21T13:29:07.797Z,100329.75
2023-01-21T13:31:53.800Z,100330.50
2023-01-21T13:34:29.504Z,100339.41
2023-01-21T13:37:05.070Z,100334.47
2023-01-21T13:39:46.339Z,100342.06
2023-01-21T13:42:38.597Z,100335.16
2023-01-21T13:45:44.414Z,100346.69
2023-01-21T13:48:33.039Z,100356.84
2023-01-21T13:51:26.341Z,100356.91
2023-01-21T13:54:12.531Z,100360.72
2023-01-21T13:56:39.651Z,100372.06
2023-01-21T13:59:27.756Z,100368.84
2023-01-21T14:02:13.964Z,100360.62
2023-01-21T14:04:45.386Z,100367.22
2023-01-21T14:07:17.017Z,100375.84
2023-01-21T14:09:55.968Z,100370.50
2023-01-21T14:12:39.571Z,100383.25
2023-01-21T14:15:23.191Z,100380.22
2023-01-21T14:18:03.181Z,100376.78
2023-01-21T14:20:33.328Z,100380.03
2023-01-21T14:23:05.083Z,100387.00
2023-01-21T14:25:52.178Z,100381.03
2023-01-21T14:28:35.856Z,100386.78
2023-01-21T14:31:17.869Z,100392.06
2023-01-21T14:33:57.912Z,100388.69
2023-01-21T14:36:49.499Z,100395.19
2023-01-21T14:39:19.592Z,100389.69
2023-01-21T14:42:10.161Z,100396.06
2023-01-21T14:44:41.471Z,100397.06
2023-01-21T14:47:40.011Z,100396.66
2023-01-21T14:50:08.605Z,100400.75
2023-01-21T14:52:43.265Z,100394.50
2023-01-21T14:55:27.317Z,100399.56
2023-01-21T14:57:56.696Z,100403.22
2023-01-21T15:00:28.768Z,100404.62
2023-01-21T15:03:16.488Z,100401.62
2023-01-21T15:05:45.312Z,100402.69
2023-01-21T15:08:24.929Z,100406.28
2023-01-21T15:11:13.220Z,100417.78
2023-01-21T15:13:41.937Z,100413.47
2023-01-21T15:16:19.195Z,100416.78
2023-01-21T15:19:07.973Z,100421.69
2023-01-21T15:21:41.129Z,100422.69
2023-01-21T15:24:33.196Z,100429.56
2023-01-21T15:27:22.757Z,100431.16
2023-01-21T15:30:00.573Z,100430.25
2023-01-21T15:32:39.108Z,100430.50
2023-01-21T15:35:25.999Z,100433.50
2023-01-21T15:38:01.567Z,100440.97
2023-01-21T15:40:37.140Z,100438.28
2023-01-21T15:43:20.761Z,100441.16
2023-01-21T15:46:09.939Z,100442.19
2023-01-21T15:48:45.512Z,100441.94
2023-01-21T15:51:40.566Z,100443.59
2023-01-21T15:54:25.913Z,100446.50
2023-01-21T15:57:09.700Z,100452.62
2023-01-21T15:59:45.533Z,100459.66
2023-01-21T16:02:24.772Z,100458.22
2023-01-21T16:05:15.494Z,100457.03
2023-01-21T16:08:00.936Z,100456.50
2023-01-21T16:10:47.230Z,100461.13
2023-01-21T16:13:16.826Z,100467.16
2023-01-21T16:15:53.810Z,100474.37
2023-01-21T16:18:33.166Z,100471.47
2023-01-21T16:21:02.143Z,100477.03
2023-01-21T16:23:35.220Z,100481.81
2023-01-21T16:26:03.535Z,100485.03
2023-01-21T16:28:46.934Z,100484.00
2023-01-21T16:31:14.652Z,100481.06
2023-01-21T16:33:42.952Z,100481.16
2023-01-21T16:36:14.153Z,100488.44
2023-01-21T16:38:43.758Z,100497.56
2023-01-21T16:41:10.822Z,100497.50
2023-01-21T16:43:57.912Z,100502.03
2023-01-21T16:46:34.618Z,100495.19
2023-01-21T16:49:04.776Z,100502.59
2023-01-21T16:51:34.744Z,100501.50
2023-01-21T16:54:29.537Z,100505.75
2023-01-21T16:57:00.990Z,100498.41
2023-01-21T16:59:29.814Z,100500.59
2023-01-21T17:01:58.754Z,100510.75
2023-01-21T17:04:25.941Z,100507.44
2023-01-21T17:06:54.007Z,100508.63
2023-01-21T17:09:33.760Z,100506.91
2023-01-21T17:12:04.853Z,100510.31
2023-01-21T17:14:32.925Z,100510.00
2023-01-21T17:17:02.953Z,100507.66
2023-01-21T17:19:35.003Z,100517.34
2023-01-21T17:22:11.727Z,100508.81
2023-01-21T17:24:43.929Z,100510.03
2023-01-21T17:27:16.182Z,100511.75
2023-01-21T17:29:45.437Z,100511.75
2023-01-21T17:32:32.879Z,100517.50
2023-01-21T17:35:11.595Z,100516.56
2023-01-21T17:37:57.514Z,100511.78
2023-01-21T17:40:27.623Z,100513.62
2023-01-21T17:42:55.610Z,100523.12
2023-01-21T17:45:28.261Z,100530.69
2023-01-21T17:48:14.420Z,100526.69
2023-01-21T17:50:46.659Z,100535.16
2023-01-21T17:53:23.299Z,100535.13
2023-01-21T17:56:02.688Z,100536.97
2023-01-21T17:58:36.433Z,100536.81
2023-01-21T18:01:04.767Z,100544.81
2023-01-21T18:03:32.220Z,100547.22
2023-01-21T18:05:59.719Z,100540.34
2023-01-21T18:08:26.896Z,100548.66
2023-01-21T18:10:57.287Z,100542.84
2023-01-21T18:13:24.450Z,100554.12
2023-01-21T18:15:51.955Z,100559.19
2023-01-21T18:18:22.226Z,100569.34
2023-01-21T18:20:49.424Z,100569.19
2023-01-21T18:23:18.155Z,100571.44
2023-01-21T18:25:52.236Z,100570.88
2023-01-21T18:28:22.466Z,100568.44
2023-01-21T18:30:51.151Z,100579.72
2023-01-21T18:33:18.586Z,100575.28
2023-01-21T18:35:50.791Z,100576.25
2023-01-21T18:38:27.325Z,100575.28
2023-01-21T18:40:58.345Z,100568.34
2023-01-21T18:43:26.207Z,100570.03
2023-01-21T18:45:54.414Z,100572.72
2023-01-21T18:48:27.673Z,100576.00
2023-01-21T18:50:55.610Z,100573.31
2023-01-21T18:53:23.028Z,100580.91
2023-01-21T18:55:53.630Z,100581.41
2023-01-21T18:58:21.588Z,100586.56
2023-01-21T19:00:49.459Z,100588.53
2023-01-21T19:03:17.001Z,100593.53
2023-01-21T19:05:47.649Z,100594.19
2023-01-21T19:08:22.106Z,100600.78
2023-01-21T19:10:49.652Z,100603.25
2023-01-21T19:13:17.237Z,100603.50
2023-01-21T19:15:45.363Z,100604.28
2023-01-21T19:18:14.635Z,100606.94
2023-01-21T19:20:42.341Z,100616.19
2023-01-21T19:23:17.173Z,100615.16
2023-01-21T19:25:55.115Z,100614.09
2023-01-21T19:28:23.055Z,100615.59
2023-01-21T19:30:55.232Z,100628.06
2023-01-21T19:33:23.506Z,100634.34
2023-01-21T19:35:58.325Z,100628.53
2023-01-21T19:38:26.388Z,100632.34
2023-01-21T19:40:55.001Z,100631.78
2023-01-21T19:43:22.541Z,100630.94
2023-01-21T19:45:51.512Z,100624.75
2023-01-21T19:48:20.638Z,100623.91
2023-01-21T19:50:48.561Z,100624.91
2023-01-21T19:53:18.008Z,100620.50
2023-01-21T19:55:46.620Z,100611.97
2023-01-21T19:58:19.401Z,100618.88
2023-01-21T20:00:49.268Z,100608.47
2023-01-21T20:03:18.582Z,100609.44
2023-01-21T20:05:46.909Z,100608.44
2023-01-21T20:08:19.837Z,100609.47
2023-01-21T20:10:47.477Z,100617.91
2023-01-21T20:13:15.658Z,100613.66
2023-01-21T20:15:44.277Z,100620.75
2023-01-21T20:18:24.530Z,100619.91
2023-01-21T20:20:52.563Z,100629.31
2023-01-21T20:23:21.682Z,100619.94
2023-01-21T20:25:51.680Z,100624.31
2023-01-21T20:28:19.723Z,100633.63
2023-01-21T20:30:48.355Z,100631.28
2023-01-21T20:33:17.681Z,100637.22
2023-01-21T20:35:47.949Z,100642.41
2023-01-21T20:38:18.873Z,100636.16
2023-01-21T20:40:46.362Z,100633.75
2023-01-21T20:43:13.542Z,100643.19
2023-01-21T20:45:43.488Z,100641.44
2023-01-21T20:48:18.807Z,100639.50
2023-01-21T20:50:47.069Z,100636.16
2023-01-21T20:53:14.776Z,100644.59
2023-01-21T20:55:45.249Z,100633.63
2023-01-21T20:58:13.891Z,100634.47
2023-01-21T21:00:41.784Z,100636.25
2023-01-21T21:03:09.760Z,100634.75
2023-01-21T21:05:38.475Z,100633.34
2023-01-21T21:08:05.646Z,100637.53
2023-01-21T21:10:36.119Z,100638.41
2023-01-21T21:13:04.232Z,100639.25
2023-01-21T21:15:32.745Z,100642.56
2023-01-21T21:18:00.400Z,100646.56
2023-01-21T21:20:31.011Z,100639.72
2023-01-21T21:22:58.259Z,100641.28
2023-01-21T21:25:28.167Z,100650.00
2023-01-21T21:27:55.887Z,100650.31
2023-01-21T21:30:30.369Z,100643.59
2023-01-21T21:32:59.804Z,100645.19
2023-01-21T21:35:34.293Z,100645.31
2023-01-21T21:38:07.406Z,100645.28
2023-01-21T21:40:37.426Z,100645.91
2023-01-21T21:43:23.453Z,100648.38
2023-01-21T21:46:22.887Z,100650.69
2023-01-21T21:48:51.569Z,100662.88
2023-01-21T21:51:19.381Z,100660.22
2023-01-21T21:53:46.728Z,100669.28
2023-01-21T21:56:17.455Z,100664.59
2023-01-21T21:58:44.693Z,100669.97
2023-01-21T22:01:29.492Z,100663.00
2023-01-21T22:04:04.419Z,100658.56
2023-01-21T22:06:32.499Z,100664.16
2023-01-21T22:09:00.083Z,100655.62
2023-01-21T22:11:28.222Z,100655.84
2023-01-21T22:13:55.953Z,100666.06
2023-01-21T22:16:25.549Z,100666.06
2023-01-21T22:18:53.048Z,100657.44
2023-01-21T22:21:22.937Z,100653.22
2023-01-21T22:23:50.363Z,100651.53
2023-01-21T22:26:22.018Z,100651.59
2023-01-21T22:28:51.302Z,100645.66
2023-01-21T22:31:23.709Z,100645.28
2023-01-21T22:33:51.289Z,100639.38
2023-01-21T22:36:21.139Z,100641.16
2023-01-21T22:38:48.480Z,100643.34
2023-01-21T22:41:17.623Z,100639.25
2023-01-21T22:43:45.997Z,100647.50
2023-01-21T22:46:15.027Z,100645.28
2023-01-21T22:48:42.299Z,100632.50
2023-01-21T22:51:13.939Z,100638.38
2023-01-21T22:53:41.529Z,100642.62
2023-01-21T22:56:10.104Z,100644.06
2023-01-21T22:58:37.851Z,100638.13
2023-01-21T23:01:05.543Z,100645.03
2023-01-21T23:03:32.883Z,100635.59
2023-01-21T23:06:08.370Z,100650.41
2023-01-21T23:08:38.661Z,100658.59
2023-01-21T23:11:07.953Z,100661.06
2023-01-21T23:13:35.257Z,100667.53
2023-01-21T23:16:05.401Z,100656.75
2023-01-21T23:18:33.923Z,100651.38
2023-01-21T23:21:07.465Z,100654.19
2023-01-21T23:23:37.338Z,100647.56
2023-01-21T23:26:06.579Z,100656.09
2023-01-21T23:28:34.414Z,100646.28
2023-01-21T23:31:09.672Z,100652.53
2023-01-21T23:33:37.059Z,100649.03
2023-01-21T23:36:04.778Z,100650.78
2023-01-21T23:38:31.987Z,100654.37
2023-01-21T23:40:59.958Z,100654.37
2023-01-21T23:43:27.719Z,100651.75
2023-01-21T23:45:55.342Z,100651.63
2023-01-21T23:48:22.968Z,100654.22
2023-01-21T23:50:50.594Z,100652.47
2023-01-21T23:53:17.883Z,100651.59
2023-01-21T23:55:45.031Z,100659.91
2023-01-21T23:58:12.511Z,100656.16
